Time;durP1;ratioP1;P1;durP2;ratioP2;P2;SDS_P1;SDS_P2;PMS_P1;PMS_P2;Temp;Humidity;BMP_temperature;BMP_pressure;BME280_temperature;BME280_humidity;BME280_pressure;Samples;Min_cycle;Max_cycle;Signal;HPM_P1;HPM_P2
2024/03/02 00:01:54;;;;;;;61.75;35.28;;;;;;;6.23;86.81;97631.16;5029439;28;20100;-86
2024/03/02 00:04:20;;;;;;;64.35;33.00;;;;;;;5.99;88.22;97610.28;5005471;28;20053;-86
2024/03/02 00:06:45;;;;;;;55.00;31.20;;;;;;;6.37;86.46;97635.84;5037956;28;20378;-85
2024/03/02 00:09:14;;;;;;;60.33;32.65;;;;;;;6.48;85.85;97618.16;5040266;28;20525;-85
2024/03/02 00:11:40;;;;;;;67.32;32.67;;;;;;;6.11;87.15;97585.50;5041142;28;20044;-85
2024/03/02 00:14:05;;;;;;;62.90;32.05;;;;;;;6.34;85.69;97609.81;5044853;28;20044;-85
2024/03/02 00:16:32;;;;;;;63.92;33.33;;;;;;;6.41;86.77;97636.13;5037389;28;20029;-86
2024/03/02 00:19:02;;;;;;;61.63;34.00;;;;;;;6.26;86.79;97620.06;5036954;28;20396;-85
2024/03/02 00:21:29;;;;;;;65.07;34.35;;;;;;;6.35;86.30;97642.44;5040498;28;20029;-86
2024/03/02 00:23:55;;;;;;;64.63;34.78;;;;;;;6.44;86.20;97617.88;5025723;28;20060;-85
2024/03/02 00:26:21;;;;;;;59.10;30.77;;;;;;;6.38;85.73;97615.41;5036120;28;20026;-86
2024/03/02 00:28:46;;;;;;;58.13;31.75;;;;;;;6.38;86.70;97626.00;5022206;28;20067;-85
2024/03/02 00:31:13;;;;;;;62.78;34.13;;;;;;;6.32;86.72;97637.63;5031343;28;20033;-84
2024/03/02 00:33:46;;;;;;;64.53;32.78;;;;;;;6.28;87.09;97636.53;5019096;28;20044;-85
2024/03/02 00:36:14;;;;;;;59.78;32.53;;;;;;;6.17;88.09;97630.31;5033129;28;20109;-85
2024/03/02 00:38:49;;;;;;;64.45;32.22;;;;;;;6.16;87.52;97614.69;5037889;28;20037;-85
2024/03/02 00:41:24;;;;;;;60.40;33.35;;;;;;;6.17;87.51;97616.28;5036258;28;20105;-85
2024/03/02 00:44:03;;;;;;;71.03;36.43;;;;;;;6.32;87.33;97641.06;5038057;28;20037;-85
2024/03/02 00:46:33;;;;;;;69.20;34.35;;;;;;;6.17;88.06;97638.28;5035730;28;20040;-86
2024/03/02 00:49:00;;;;;;;60.72;34.75;;;;;;;6.10;87.32;97618.31;5033717;28;20029;-85
2024/03/02 00:51:27;;;;;;;65.15;34.40;;;;;;;6.25;87.89;97637.81;5021266;28;20030;-84
2024/03/02 00:53:58;;;;;;;65.97;34.85;;;;;;;6.23;87.72;97637.28;5035842;28;20037;-85
2024/03/02 00:56:24;;;;;;;62.28;33.58;;;;;;;6.29;86.72;97635.47;5037463;28;20026;-86
2024/03/02 00:58:50;;;;;;;60.63;35.63;;;;;;;6.36;86.88;97642.16;5030466;28;20040;-85
2024/03/02 01:01:16;;;;;;;73.22;37.65;;;;;;;6.17;86.62;97609.13;5032536;28;20404;-85
2024/03/02 01:03:42;;;;;;;67.63;34.42;;;;;;;6.33;86.76;97625.97;5018006;28;20030;-85
2024/03/02 01:06:08;;;;;;;63.33;34.78;;;;;;;6.42;85.94;97643.81;5033319;28;20075;-85
2024/03/02 01:08:36;;;;;;;67.57;35.90;;;;;;;6.02;86.54;97630.19;5032417;28;20018;-86
2024/03/02 01:11:02;;;;;;;73.72;34.42;;;;;;;6.00;87.37;97643.66;5031757;28;20032;-85
2024/03/02 01:13:28;;;;;;;68.97;34.65;;;;;;;6.36;85.80;97636.88;5017034;28;20033;-86
2024/03/02 01:15:53;;;;;;;64.20;33.90;;;;;;;6.47;85.32;97627.97;5033028;28;20083;-86
2024/03/02 01:18:19;;;;;;;63.47;32.78;;;;;;;6.40;85.18;97626.59;5015896;28;20021;-85
2024/03/02 01:20:45;;;;;;;67.03;33.72;;;;;;;6.42;85.45;97643.81;5030198;28;21160;-85
2024/03/02 01:23:10;;;;;;;68.03;35.83;;;;;;;6.25;85.79;97634.34;5034125;28;20025;-85
2024/03/02 01:25:35;;;;;;;71.88;37.58;;;;;;;6.23;85.70;97639.91;5034913;28;20030;-86
2024/03/02 01:28:01;;;;;;;74.10;35.80;;;;;;;6.18;85.76;97626.63;5012980;28;20033;-85
2024/03/02 01:30:26;;;;;;;66.35;35.85;;;;;;;6.19;86.24;97641.47;5027935;28;20018;-85
2024/03/02 01:32:52;;;;;;;62.72;34.03;;;;;;;5.97;85.98;97622.16;5020990;28;20029;-86
2024/03/02 01:35:17;;;;;;;66.13;35.72;;;;;;;6.17;85.77;97634.81;5030263;28;20120;-81
2024/03/02 01:37:43;;;;;;;62.88;35.65;;;;;;;6.16;86.23;97641.19;5030323;28;20432;-80
2024/03/02 01:40:09;;;;;;;67.13;35.42;;;;;;;6.15;85.65;97645.66;5031567;28;20026;-81
2024/03/02 01:42:39;;;;;;;66.53;34.10;;;;;;;6.04;85.45;97623.59;5014737;28;20137;-81
2024/03/02 01:45:05;;;;;;;69.05;34.35;;;;;;;5.99;85.78;97617.41;5025186;28;20151;-85
2024/03/02 01:47:32;;;;;;;64.70;34.22;;;;;;;6.09;86.18;97638.72;5011061;28;20107;-86
2024/03/02 01:49:58;;;;;;;61.35;32.53;;;;;;;6.04;86.74;97634.19;5030417;28;20030;-85
2024/03/02 01:52:23;;;;;;;61.30;32.92;;;;;;;5.67;86.15;97588.19;5028737;28;20028;-85
2024/03/02 01:54:49;;;;;;;68.30;34.10;;;;;;;5.98;86.12;97605.25;5030167;28;20052;-86
2024/03/02 01:57:14;;;;;;;63.30;33.65;;;;;;;6.00;85.50;97603.94;5030528;28;20053;-85
2024/03/02 01:59:40;;;;;;;65.75;34.92;;;;;;;5.93;86.52;97621.88;5023262;28;20042;-84
2024/03/02 02:02:05;;;;;;;62.63;34.33;;;;;;;6.10;86.34;97628.91;5029758;28;20043;-85
2024/03/02 02:04:30;;;;;;;66.95;36.38;;;;;;;6.19;85.42;97620.28;5032578;28;20037;-84
2024/03/02 02:06:56;;;;;;;63.15;34.40;;;;;;;6.01;85.50;97610.81;5026884;28;20034;-85
2024/03/02 02:09:22;;;;;;;60.80;34.55;;;;;;;6.11;86.10;97610.13;5030374;28;20040;-84
2024/03/02 02:11:47;;;;;;;64.47;36.10;;;;;;;5.91;86.88;97610.72;5027422;28;20378;-85
2024/03/02 02:14:13;;;;;;;65.20;34.00;;;;;;;6.01;85.82;97613.47;5006629;28;20056;-84
2024/03/02 02:16:38;;;;;;;66.95;34.03;;;;;;;6.00;86.40;97611.91;5015259;28;20128;-84
2024/03/02 02:19:03;;;;;;;63.80;33.58;;;;;;;6.01;86.29;97607.38;5017031;28;20124;-85
2024/03/02 02:21:29;;;;;;;67.78;34.47;;;;;;;6.02;85.61;97598.41;5021169;28;20026;-84
2024/03/02 02:23:54;;;;;;;62.20;34.33;;;;;;;6.12;85.35;97595.03;5015216;28;20168;-84
2024/03/02 02:26:20;;;;;;;59.42;32.80;;;;;;;6.11;86.22;97596.09;5026626;28;20049;-84
2024/03/02 02:28:48;;;;;;;65.40;32.40;;;;;;;5.80;85.90;97569.28;5015095;28;20039;-85
2024/03/02 02:31:14;;;;;;;62.75;33.00;;;;;;;5.91;87.24;97602.78;5000366;28;20382;-85
2024/03/02 02:33:40;;;;;;;60.10;33.50;;;;;;;5.87;86.88;97585.81;5025474;28;20049;-85
2024/03/02 02:36:06;;;;;;;56.45;31.00;;;;;;;5.95;86.64;97571.31;5028985;28;20057;-84
2024/03/02 02:38:33;;;;;;;62.30;32.40;;;;;;;5.86;86.98;97578.09;5010805;28;20032;-84
2024/03/02 02:40:59;;;;;;;61.25;32.65;;;;;;;5.72;87.64;97588.22;5022887;28;20472;-83
2024/03/02 02:43:24;;;;;;;56.08;31.70;;;;;;;5.71;87.61;97565.47;4989625;28;20031;-84
2024/03/02 02:45:49;;;;;;;57.05;32.00;;;;;;;5.98;87.40;97595.44;4996290;28;20053;-85
2024/03/02 02:48:15;;;;;;;61.40;33.22;;;;;;;5.96;87.79;97579.00;5031000;28;20025;-84
2024/03/02 02:50:41;;;;;;;59.22;33.22;;;;;;;5.84;86.98;97570.41;5028185;28;20473;-83
2024/03/02 02:53:09;;;;;;;61.35;32.88;;;;;;;5.76;87.71;97580.59;5023154;28;20393;-85
2024/03/02 02:55:35;;;;;;;66.05;33.63;;;;;;;5.76;88.26;97591.19;5026822;28;20033;-83
2024/03/02 02:58:00;;;;;;;61.55;34.22;;;;;;;5.89;87.81;97567.00;5031323;28;20048;-85
2024/03/02 03:00:25;;;;;;;62.85;33.47;;;;;;;5.92;87.56;97585.03;5026598;28;20473;-85
2024/03/02 03:02:51;;;;;;;60.53;33.67;;;;;;;5.95;87.23;97588.00;5031565;28;20037;-84
2024/03/02 03:05:16;;;;;;;64.32;33.60;;;;;;;5.76;87.48;97560.25;5029724;28;20083;-84
2024/03/02 03:07:44;;;;;;;61.63;33.28;;;;;;;5.81;88.08;97589.41;5026420;28;20374;-84
2024/03/02 03:10:10;;;;;;;63.03;34.38;;;;;;;5.56;88.71;97546.78;5031245;28;20013;-84
2024/03/02 03:12:36;;;;;;;69.15;36.28;;;;;;;5.76;88.35;97570.81;5024873;28;20033;-84
2024/03/02 03:15:02;;;;;;;62.28;32.92;;;;;;;5.71;87.96;97562.81;5012131;28;20583;-84
2024/03/02 03:17:28;;;;;;;62.72;34.45;;;;;;;5.95;88.33;97580.06;5032026;28;20036;-84
2024/03/02 03:19:54;;;;;;;63.03;33.55;;;;;;;5.79;88.27;97562.38;5012835;28;20033;-85
2024/03/02 03:22:20;;;;;;;67.03;33.33;;;;;;;5.78;88.00;97558.13;5017614;28;20120;-84
2024/03/02 03:24:45;;;;;;;70.03;35.50;;;;;;;5.74;88.88;97558.88;5009798;28;20449;-84
2024/03/02 03:27:11;;;;;;;61.25;34.33;;;;;;;5.91;87.73;97576.31;4994022;28;20117;-85
2024/03/02 03:29:37;;;;;;;65.07;35.50;;;;;;;5.89;87.34;97570.47;5033239;28;20036;-86
2024/03/02 03:32:03;;;;;;;65.55;35.53;;;;;;;5.80;87.76;97571.94;5031478;28;20393;-85
2024/03/02 03:34:29;;;;;;;66.40;34.20;;;;;;;5.79;88.09;97572.97;5012529;28;20025;-85
2024/03/02 03:36:54;;;;;;;66.80;33.53;;;;;;;5.70;87.92;97563.06;5029562;28;20396;-84
2024/03/02 03:39:20;;;;;;;60.28;33.38;;;;;;;5.71;88.69;97572.59;5028629;28;20038;-83
2024/03/02 03:41:45;;;;;;;59.80;34.22;;;;;;;5.84;88.80;97572.25;5030487;28;20034;-84
2024/03/02 03:44:10;;;;;;;61.72;34.03;;;;;;;5.80;88.48;97573.75;5012559;28;20068;-84
2024/03/02 03:46:36;;;;;;;64.28;32.85;;;;;;;5.64;90.42;97572.78;5030465;28;20082;-84
2024/03/02 03:49:01;;;;;;;62.10;34.10;;;;;;;5.61;90.07;97567.22;5031292;28;20370;-85
2024/03/02 03:51:27;;;;;;;63.75;34.42;;;;;;;5.50;90.30;97549.63;5026029;28;20033;-83
2024/03/02 03:53:52;;;;;;;64.68;34.10;;;;;;;5.53;88.83;97531.38;4994060;28;20026;-84
2024/03/02 03:56:17;;;;;;;58.85;31.52;;;;;;;5.85;88.02;97576.50;5027571;28;20044;-85
2024/03/02 03:58:43;;;;;;;60.55;34.40;;;;;;;5.84;88.40;97570.41;5033748;28;20041;-85
2024/03/02 04:01:08;;;;;;;60.33;33.60;;;;;;;5.66;88.44;97552.16;5025495;28;20485;-85
2024/03/02 04:03:33;;;;;;;58.58;31.65;;;;;;;5.74;88.41;97577.41;4998536;28;20405;-84
2024/03/02 04:05:59;;;;;;;58.97;34.47;;;;;;;5.75;89.72;97579.81;5025664;28;20052;-84
2024/03/02 04:08:24;;;;;;;61.03;33.15;;;;;;;5.63;89.53;97567.75;5008919;28;20396;-84
2024/03/02 04:10:49;;;;;;;66.38;32.20;;;;;;;5.76;89.43;97581.41;5029743;28;20026;-85
2024/03/02 04:13:15;;;;;;;57.30;31.63;;;;;;;5.59;90.11;97572.72;5032753;28;20065;-84
2024/03/02 04:15:40;;;;;;;65.50;35.58;;;;;;;5.71;89.82;97580.53;5026630;28;20500;-84
2024/03/02 04:18:06;;;;;;;60.05;33.17;;;;;;;5.65;89.48;97582.34;5017377;28;20061;-85
2024/03/02 04:20:31;;;;;;;65.50;35.65;;;;;;;5.59;89.03;97562.16;5029965;28;20495;-84
2024/03/02 04:22:57;;;;;;;60.97;34.75;;;;;;;5.69;88.92;97583.44;5010921;28;20040;-85
2024/03/02 04:25:22;;;;;;;59.60;33.75;;;;;;;5.64;88.98;97579.94;5030379;28;20022;-86
2024/03/02 04:27:48;;;;;;;60.22;34.00;;;;;;;5.39;89.68;97564.56;5013090;28;20036;-86
2024/03/02 04:30:13;;;;;;;59.78;32.72;;;;;;;5.72;89.04;97592.75;5017422;28;20030;-85
2024/03/02 04:32:39;;;;;;;62.10;34.38;;;;;;;5.73;88.07;97592.50;5036732;28;20456;-85
2024/03/02 04:35:05;;;;;;;65.00;34.63;;;;;;;5.41;88.49;97546.59;5014972;28;20083;-84
2024/03/02 04:37:34;;;;;;;60.50;32.25;;;;;;;5.60;87.86;97579.63;5031345;28;20030;-85
2024/03/02 04:39:59;;;;;;;62.45;34.45;;;;;;;5.66;87.61;97597.16;5021436;28;20053;-86
2024/03/02 04:42:25;;;;;;;66.65;34.20;;;;;;;5.59;87.70;97603.72;5033225;28;20064;-85
2024/03/02 04:44:50;;;;;;;55.95;32.95;;;;;;;5.45;88.96;97603.28;5032185;28;20087;-83
2024/03/02 04:47:15;;;;;;;61.28;33.63;;;;;;;5.45;88.91;97608.56;5037489;28;20033;-86
2024/03/02 04:49:41;;;;;;;64.60;32.75;;;;;;;5.52;88.96;97606.53;5036969;28;20037;-85
2024/03/02 04:52:06;;;;;;;62.65;32.78;;;;;;;5.45;88.33;97579.47;5033429;28;20032;-85
2024/03/02 04:54:32;;;;;;;63.83;34.90;;;;;;;5.48;88.30;97586.91;5000681;28;20040;-86
2024/03/02 04:56:58;;;;;;;58.13;31.13;;;;;;;5.40;88.69;97597.09;5025729;28;20499;-82
2024/03/02 04:59:23;;;;;;;64.07;33.58;;;;;;;5.36;88.52;97604.75;5036961;28;20064;-81
2024/03/02 05:01:48;;;;;;;58.25;32.03;;;;;;;5.31;89.11;97609.97;5031331;28;20095;-81
2024/03/02 05:04:14;;;;;;;67.75;33.85;;;;;;;5.35;88.90;97599.72;5029041;28;20040;-81
2024/03/02 05:06:42;;;;;;;69.55;34.42;;;;;;;5.25;88.87;97584.50;5029542;28;20038;-85
2024/03/02 05:09:08;;;;;;;62.03;32.55;;;;;;;5.53;88.51;97592.25;5038023;28;20037;-84
2024/03/02 05:14:02;;;;;;;65.30;33.88;;;;;;;5.44;88.92;97580.50;5034585;28;20021;-84
2024/03/02 05:16:27;;;;;;;63.65;34.47;;;;;;;5.46;87.91;97596.16;5024699;28;20052;-84
2024/03/02 05:18:52;;;;;;;58.97;33.67;;;;;;;4.94;87.76;97511.09;5031252;28;20559;-84
2024/03/02 05:21:18;;;;;;;65.63;35.40;;;;;;;5.40;87.80;97605.84;5035933;28;20484;-85
2024/03/02 05:23:44;;;;;;;61.60;32.28;;;;;;;5.36;87.58;97610.03;5034614;28;20116;-85
2024/03/02 05:26:12;;;;;;;61.65;32.33;;;;;;;5.21;87.79;97601.91;5035987;28;20493;-85
2024/03/02 05:28:38;;;;;;;75.43;37.67;;;;;;;4.79;88.90;97600.75;5030145;28;20048;-84
2024/03/02 05:31:04;;;;;;;79.20;40.17;;;;;;;4.17;91.33;97597.41;5034849;28;20037;-84
2024/03/02 05:33:31;;;;;;;66.47;35.60;;;;;;;4.77;91.65;97605.50;5016200;28;20029;-85
2024/03/02 05:35:56;;;;;;;77.93;36.65;;;;;;;4.67;91.42;97606.16;5007420;28;20037;-84
2024/03/02 05:38:22;;;;;;;70.20;35.70;;;;;;;4.33;90.63;97599.25;5017770;28;20083;-86
2024/03/02 05:40:47;;;;;;;78.35;39.22;;;;;;;4.53;91.48;97599.59;5037839;28;20037;-85
2024/03/02 05:43:13;;;;;;;76.63;37.88;;;;;;;5.13;89.51;97589.13;5034948;28;20034;-85
2024/03/02 05:45:39;;;;;;;70.10;36.20;;;;;;;5.17;87.74;97582.28;5008556;28;20090;-85
2024/03/02 05:48:09;;;;;;;67.18;35.45;;;;;;;5.19;87.99;97596.06;5031254;28;20034;-85
2024/03/02 05:50:34;;;;;;;72.75;34.67;;;;;;;5.28;88.35;97610.47;5015340;28;20505;-85
2024/03/02 05:52:59;;;;;;;67.65;35.92;;;;;;;5.35;87.44;97621.69;5035281;28;20037;-85
2024/03/02 05:55:25;;;;;;;65.65;34.63;;;;;;;5.17;87.49;97596.31;5011226;28;20030;-84
2024/03/02 06:00:42;;;;;;;61.03;32.72;;;;;;;5.24;88.48;97619.94;5034656;28;20553;-85
2024/03/02 06:03:09;;;;;;;66.93;36.88;;;;;;;5.27;87.36;97622.06;5012882;28;20091;-85
2024/03/02 06:05:34;;;;;;;69.78;37.53;;;;;;;4.99;87.03;97580.72;5034963;28;20037;-85
2024/03/02 06:08:00;;;;;;;66.93;34.47;;;;;;;5.36;87.25;97623.25;5036196;28;20029;-86
2024/03/02 06:10:25;;;;;;;65.20;31.85;;;;;;;5.15;88.74;97622.22;5033378;28;20061;-84
2024/03/02 06:12:51;;;;;;;74.07;39.38;;;;;;;4.92;88.25;97618.94;5034897;28;20068;-86
2024/03/02 06:15:16;;;;;;;72.07;33.95;;;;;;;4.93;88.32;97631.13;5037201;28;20029;-85
2024/03/02 06:17:42;;;;;;;61.90;33.42;;;;;;;4.96;88.77;97625.34;5017947;28;20044;-86
2024/03/02 06:20:08;;;;;;;66.07;35.00;;;;;;;5.03;89.26;97631.25;5030990;28;20045;-86
2024/03/02 06:22:34;;;;;;;69.68;35.38;;;;;;;4.84;87.80;97577.88;5041966;28;20037;-86
2024/03/02 06:25:00;;;;;;;68.35;36.67;;;;;;;5.17;88.45;97643.91;5038321;28;20029;-85
2024/03/02 06:27:26;;;;;;;70.88;35.13;;;;;;;5.14;89.16;97633.00;5039871;28;20491;-86
2024/03/02 06:29:51;;;;;;;75.28;34.67;;;;;;;5.00;89.04;97621.19;5019688;28;20033;-86
2024/03/02 06:32:17;;;;;;;62.22;33.15;;;;;;;5.12;88.62;97625.31;5033168;28;20060;-85
2024/03/02 06:34:43;;;;;;;62.40;33.00;;;;;;;5.25;88.43;97640.03;5017974;28;20033;-85
2024/03/02 06:37:08;;;;;;;68.75;35.55;;;;;;;5.16;88.31;97628.28;5015797;28;20033;-86
2024/03/02 06:39:34;;;;;;;67.25;35.65;;;;;;;5.06;88.16;97623.66;5015237;28;20039;-86
2024/03/02 06:42:00;;;;;;;64.75;33.65;;;;;;;5.26;89.05;97646.94;5042266;28;20025;-86
2024/03/02 06:44:25;;;;;;;70.32;37.47;;;;;;;4.63;90.45;97649.94;5031825;28;20033;-86
2024/03/02 06:46:51;;;;;;;72.95;37.83;;;;;;;4.43;92.67;97602.84;5033111;28;20473;-85
2024/03/02 06:49:17;;;;;;;77.13;36.83;;;;;;;4.71;92.14;97644.28;5009654;28;20029;-84
2024/03/02 06:51:43;;;;;;;71.43;37.55;;;;;;;5.18;89.71;97648.16;5009113;28;20541;-85
2024/03/02 06:54:09;;;;;;;68.70;34.65;;;;;;;5.34;89.35;97649.16;5008453;28;20117;-84
2024/03/02 06:56:34;;;;;;;66.60;35.38;;;;;;;5.45;88.93;97663.31;5001528;28;20049;-84
2024/03/02 06:58:59;;;;;;;70.50;35.42;;;;;;;5.40;88.52;97647.38;5024935;28;20040;-84
2024/03/02 07:01:26;;;;;;;70.05;34.17;;;;;;;5.47;88.13;97659.41;5029493;28;20029;-84
2024/03/02 07:03:51;;;;;;;67.93;34.47;;;;;;;5.32;87.99;97640.69;5023512;28;20025;-84
2024/03/02 07:06:17;;;;;;;59.08;33.05;;;;;;;5.26;89.51;97665.47;5034784;28;20408;-84
2024/03/02 07:08:45;;;;;;;66.88;33.38;;;;;;;5.23;89.70;97668.59;5005966;28;20537;-84
2024/03/02 07:11:10;;;;;;;59.25;31.52;;;;;;;5.29;90.22;97668.41;5023619;28;20022;-83
2024/03/02 07:13:36;;;;;;;65.40;34.13;;;;;;;5.24;89.64;97652.47;5022561;28;20037;-84
2024/03/02 07:18:44;;;;;;;63.63;33.05;;;;;;;5.52;89.87;97677.19;5018405;28;20052;-83
2024/03/02 07:21:10;;;;;;;57.08;32.58;;;;;;;5.19;90.33;97641.03;5022682;28;20548;-84
2024/03/02 07:23:36;;;;;;;67.82;34.35;;;;;;;5.31;89.37;97660.22;5025004;28;20112;-84
2024/03/02 07:26:01;;;;;;;69.38;33.28;;;;;;;5.42;89.71;97677.06;5006445;28;20033;-84
2024/03/02 07:28:27;;;;;;;64.28;33.97;;;;;;;5.37;90.11;97667.22;5008232;28;20076;-84
2024/03/02 07:31:04;;;;;;;62.00;32.50;;;;;;;5.34;90.38;97662.38;5012047;28;20026;-84
2024/03/02 07:33:32;;;;;;;64.85;32.30;;;;;;;5.40;89.38;97669.34;5023841;28;20108;-84
2024/03/02 07:36:00;;;;;;;60.67;32.83;;;;;;;5.50;90.05;97676.63;5022919;28;20063;-85
2024/03/02 07:38:26;;;;;;;62.67;33.22;;;;;;;5.51;89.12;97679.03;5024775;28;20078;-83
2024/03/02 07:40:55;;;;;;;70.20;35.03;;;;;;;5.38;90.04;97666.16;5007568;28;20171;-84
2024/03/02 07:43:21;;;;;;;62.45;34.40;;;;;;;5.58;89.36;97692.88;5020466;28;20030;-84
2024/03/02 07:45:47;;;;;;;67.20;34.75;;;;;;;5.63;89.77;97695.59;5003996;28;20487;-84
2024/03/02 07:48:12;;;;;;;61.78;33.22;;;;;;;5.39;90.38;97661.66;5020370;28;20136;-84
2024/03/02 07:50:38;;;;;;;65.07;34.40;;;;;;;5.63;90.60;97705.38;5021335;28;20037;-84
2024/03/02 07:53:07;;;;;;;59.67;32.75;;;;;;;5.81;89.13;97710.41;5037717;28;20029;-85
2024/03/02 07:55:33;;;;;;;64.93;34.13;;;;;;;5.88;88.73;97701.25;5037076;28;20476;-84
2024/03/02 07:57:58;;;;;;;68.20;36.05;;;;;;;5.25;90.38;97651.44;5020816;28;20036;-84
2024/03/02 08:00:25;;;;;;;66.63;33.33;;;;;;;5.32;89.61;97630.91;5025139;28;20037;-84
2024/03/02 08:02:51;;;;;;;61.53;30.95;;;;;;;5.75;91.62;97708.72;5023161;28;20022;-84
2024/03/02 08:05:18;;;;;;;68.10;35.42;;;;;;;5.58;91.59;97684.13;5022524;28;20030;-85
2024/03/02 08:07:45;;;;;;;71.90;36.33;;;;;;;5.63;93.83;97708.84;5037494;28;20715;-86
2024/03/02 08:10:10;;;;;;;64.28;35.30;;;;;;;5.56;94.74;97697.63;5034652;28;20022;-85
2024/03/02 08:12:35;;;;;;;64.38;35.17;;;;;;;5.63;91.29;97674.44;5029669;28;20052;-86
2024/03/02 08:15:04;;;;;;;68.18;35.38;;;;;;;5.92;90.11;97715.59;5011931;28;20045;-84
2024/03/02 08:17:30;;;;;;;65.30;32.45;;;;;;;5.93;92.12;97714.56;5043315;28;20785;-85
2024/03/02 08:19:56;;;;;;;62.22;32.88;;;;;;;5.87;91.73;97701.50;5034074;28;20029;-86
2024/03/02 08:22:22;;;;;;;64.60;33.97;;;;;;;5.75;95.37;97706.06;5009220;28;20033;-86
2024/03/02 08:24:48;;;;;;;57.97;31.77;;;;;;;5.92;92.87;97707.66;4991400;28;20059;-85
2024/03/02 08:27:13;;;;;;;61.17;34.10;;;;;;;6.13;91.86;97727.25;5001482;28;20026;-85
2024/03/02 08:29:38;;;;;;;57.67;32.40;;;;;;;6.22;91.74;97727.59;5033697;28;20037;-86
2024/03/02 08:32:06;;;;;;;59.80;31.67;;;;;;;6.13;92.59;97723.78;5022109;28;20437;-85
2024/03/02 08:34:31;;;;;;;62.13;31.70;;;;;;;6.04;94.03;97721.56;5019539;28;20034;-86
2024/03/02 08:36:57;;;;;;;63.53;33.38;;;;;;;6.26;91.98;97720.75;5040506;28;20044;-86
2024/03/02 08:39:22;;;;;;;62.53;32.88;;;;;;;6.29;93.29;97720.28;5037760;28;20033;-85
2024/03/02 08:41:48;;;;;;;65.30;35.05;;;;;;;6.33;91.81;97708.13;5022621;28;20033;-85
2024/03/02 08:44:14;;;;;;;61.10;32.85;;;;;;;6.08;91.45;97671.56;5035555;28;20035;-85
2024/03/02 08:46:40;;;;;;;63.28;36.65;;;;;;;6.29;92.47;97710.44;5011293;28;20030;-85
2024/03/02 08:49:06;;;;;;;56.90;32.55;;;;;;;6.31;91.01;97679.19;5033175;28;20034;-85
2024/03/02 08:51:32;;;;;;;61.40;33.65;;;;;;;6.37;91.27;97699.44;5044134;28;20032;-85
2024/03/02 08:53:57;;;;;;;58.55;31.95;;;;;;;6.77;89.98;97721.00;5018337;28;20397;-86
2024/03/02 08:56:23;;;;;;;63.30;34.10;;;;;;;6.69;91.74;97728.63;5021454;28;20047;-85
2024/03/02 08:58:49;;;;;;;61.65;31.58;;;;;;;6.82;89.77;97709.66;5043963;28;20112;-85
2024/03/02 09:01:16;;;;;;;56.90;31.10;;;;;;;6.56;90.87;97699.88;5020478;28;20060;-85
2024/03/02 09:03:44;;;;;;;63.67;31.38;;;;;;;6.72;89.67;97691.00;5034556;28;20034;-85
2024/03/02 09:06:10;;;;;;;57.67;30.33;;;;;;;6.89;88.82;97717.41;5036879;28;20041;-84
2024/03/02 09:08:36;;;;;;;53.28;30.23;;;;;;;6.89;89.38;97717.41;5026411;28;20037;-85
2024/03/02 09:11:02;;;;;;;52.38;29.52;;;;;;;7.05;88.45;97730.56;5024410;28;20034;-84
2024/03/02 09:13:28;;;;;;;53.83;30.33;;;;;;;6.95;87.28;97679.25;5039148;28;20037;-84
2024/03/02 09:15:54;;;;;;;55.78;31.17;;;;;;;7.18;87.79;97724.03;5032071;28;20033;-84
2024/03/02 09:18:19;;;;;;;50.00;30.65;;;;;;;7.21;86.46;97707.56;5039213;28;20097;-84
2024/03/02 09:20:45;;;;;;;54.03;28.65;;;;;;;7.28;86.57;97714.28;5024008;28;20071;-85
2024/03/02 09:23:11;;;;;;;56.28;30.98;;;;;;;7.43;86.44;97729.50;5034909;28;20039;-84
2024/03/02 09:25:37;;;;;;;50.42;28.90;;;;;;;7.25;86.34;97704.16;5020321;28;20037;-85
2024/03/02 09:28:03;;;;;;;52.42;30.08;;;;;;;7.39;86.71;97736.38;5017551;28;20037;-85
2024/03/02 09:30:28;;;;;;;48.10;27.00;;;;;;;7.56;85.80;97719.25;5023251;28;20034;-85
2024/03/02 09:32:53;;;;;;;51.83;28.60;;;;;;;7.42;86.48;97726.06;5022478;28;20038;-85
2024/03/02 09:35:19;;;;;;;46.50;27.85;;;;;;;7.43;86.98;97732.97;5019047;28;22048;-85
2024/03/02 09:37:45;;;;;;;48.95;28.08;;;;;;;7.56;85.26;97727.19;5033685;28;20087;-85
2024/03/02 09:40:11;;;;;;;49.75;27.77;;;;;;;7.46;86.34;97705.91;5008666;28;20037;-86
2024/03/02 09:42:37;;;;;;;51.42;27.17;;;;;;;7.61;86.11;97733.59;5038552;28;20030;-85
2024/03/02 09:45:03;;;;;;;48.42;27.90;;;;;;;7.66;85.23;97726.47;5043955;28;20367;-85
2024/03/02 09:47:28;;;;;;;51.65;27.08;;;;;;;7.70;84.99;97737.38;5022547;28;20028;-83
2024/03/02 09:49:55;;;;;;;54.67;29.08;;;;;;;7.68;84.31;97723.56;5024387;28;20064;-83
2024/03/02 09:52:22;;;;;;;52.35;29.08;;;;;;;7.79;84.85;97735.84;5040826;28;20037;-84
2024/03/02 09:54:48;;;;;;;48.65;28.25;;;;;;;7.66;86.26;97723.81;5039902;28;20128;-84
2024/03/02 09:57:14;;;;;;;53.03;28.65;;;;;;;7.99;84.11;97735.94;5036473;28;20044;-84
2024/03/02 09:59:39;;;;;;;46.65;27.05;;;;;;;7.82;85.17;97735.34;5036275;28;20033;-84
2024/03/02 10:02:06;;;;;;;47.72;27.02;;;;;;;7.92;84.87;97719.44;5021941;28;20026;-85
2024/03/02 10:04:33;;;;;;;44.03;25.40;;;;;;;7.87;84.70;97727.38;5039126;28;20116;-86
2024/03/02 10:07:18;;;;;;;43.65;25.35;;;;;;;7.86;84.04;97723.94;5032826;28;20038;-85
2024/03/02 10:09:45;;;;;;;46.17;25.77;;;;;;;8.12;83.68;97736.28;5034162;28;20025;-85
2024/03/02 10:12:13;;;;;;;44.67;25.10;;;;;;;8.11;83.72;97742.63;5041039;28;20049;-83
2024/03/02 10:14:40;;;;;;;44.10;25.95;;;;;;;8.15;83.69;97749.03;5036244;28;20036;-85
2024/03/02 10:17:13;;;;;;;41.63;23.80;;;;;;;8.07;82.95;97748.72;5034632;28;20032;-85
2024/03/02 10:19:39;;;;;;;44.22;24.33;;;;;;;8.07;83.08;97733.59;5040148;28;20037;-84
2024/03/02 10:22:09;;;;;;;41.58;24.67;;;;;;;8.14;82.30;97736.00;5036143;28;20133;-85
2024/03/02 10:24:38;;;;;;;40.53;23.92;;;;;;;8.33;82.49;97753.13;5039012;28;20034;-85
2024/03/02 10:27:27;;;;;;;43.25;23.60;;;;;;;8.47;81.49;97750.78;5036261;28;20038;-84
2024/03/02 10:29:53;;;;;;;41.25;23.60;;;;;;;8.27;81.48;97733.72;5038758;28;20053;-85
2024/03/02 10:32:22;;;;;;;38.10;22.58;;;;;;;8.51;81.54;97746.53;5039632;28;20025;-85
2024/03/02 10:34:48;;;;;;;45.35;24.00;;;;;;;8.54;80.65;97754.00;5038761;28;20029;-84
2024/03/02 10:37:14;;;;;;;37.40;21.85;;;;;;;8.75;80.31;97751.13;5037063;28;20029;-85
2024/03/02 10:39:40;;;;;;;37.70;22.30;;;;;;;8.81;80.07;97752.72;5043138;28;20485;-86
2024/03/02 10:42:07;;;;;;;37.20;22.08;;;;;;;8.93;79.86;97747.94;5039755;28;20029;-86
2024/03/02 10:44:33;;;;;;;38.67;22.38;;;;;;;8.78;80.26;97733.84;5033675;28;20048;-86
2024/03/02 10:47:03;;;;;;;43.20;23.08;;;;;;;8.82;79.71;97740.22;5016179;28;20034;-85
2024/03/02 10:49:31;;;;;;;31.90;19.95;;;;;;;9.01;78.86;97736.78;5034588;28;20025;-85
2024/03/02 10:52:00;;;;;;;32.15;20.83;;;;;;;9.01;78.66;97739.44;5030747;28;20527;-85
2024/03/02 10:54:28;;;;;;;34.38;20.65;;;;;;;8.93;78.62;97723.97;5035090;28;20029;-85
2024/03/02 10:56:58;;;;;;;33.88;19.73;;;;;;;9.21;78.45;97741.31;5032507;28;20048;-85
2024/03/02 10:59:35;;;;;;;33.63;21.05;;;;;;;9.26;78.42;97746.63;5019803;28;20045;-84
2024/03/02 11:02:01;;;;;;;36.30;20.15;;;;;;;9.43;78.08;97751.69;5030978;28;20022;-85
2024/03/02 11:04:29;;;;;;;40.70;24.25;;;;;;;9.31;78.26;97740.50;5032853;28;20104;-86
2024/03/02 11:07:04;;;;;;;50.80;29.17;;;;;;;9.29;77.16;97724.00;5026000;28;20556;-82
2024/03/02 11:09:32;;;;;;;38.35;22.88;;;;;;;9.49;76.79;97746.09;4999139;28;20021;-83
2024/03/02 11:12:03;;;;;;;33.55;21.02;;;;;;;9.48;76.72;97747.16;5045932;28;20517;-82
2024/03/02 11:14:34;;;;;;;31.10;19.10;;;;;;;9.58;76.82;97749.00;5027974;28;20028;-82
2024/03/02 11:17:03;;;;;;;35.03;20.92;;;;;;;9.47;76.12;97726.13;5034013;28;20118;-82
2024/03/02 11:19:31;;;;;;;32.33;19.35;;;;;;;9.60;75.18;97738.88;5031268;28;20040;-82
2024/03/02 11:21:57;;;;;;;29.80;19.38;;;;;;;9.58;75.59;97738.34;5035319;28;20042;-82
2024/03/02 11:24:23;;;;;;;32.53;19.42;;;;;;;9.66;75.33;97751.13;5033317;28;20489;-82
2024/03/02 11:26:52;;;;;;;27.52;18.02;;;;;;;9.47;74.85;97737.56;5032585;28;20033;-86
2024/03/02 11:29:35;;;;;;;30.67;19.10;;;;;;;9.65;74.82;97746.88;5011704;28;20124;-86